Flight Track Log - Related Links

Times and Time Zones

All times are in EDT time to prevent confusion due to time zone crossing. See the SWA279 flight status page for this flight to view local times or setup timezone preferences in your user account.

Time Position Orientation Groundspeed Altitude Reporting Facility
EDT Latitude Longitude Course Direction KTS MPH feet Rate Location/Type
Fri 03:41:44 PM 41.8000 -87.7667 48° Northeast 160 184 1,800  Level Chicago TRACON
Fri 03:42:43 PM 41.8333 -87.7167 48° Northeast 252 290 3,000 808 Climbing Chicago TRACON
Fri 03:43:28 PM 41.8317 -87.6606 92° East 243 280 3,200 1,121 Climbing Chicago Center
Fri 03:44:30 PM 41.8217 -87.5611 98° East 257 296 5,000 2,516 Climbing Chicago Center
Fri 03:45:32 PM 41.8064 -87.4456 100° East 305 351 8,400 3,629 Climbing Chicago Center
Fri 03:46:34 PM 41.7906 -87.3019 98° East 326 375 12,500 3,048 Climbing Chicago Center
Fri 03:47:36 PM 41.7756 -87.1767 99° East 339 390 14,700 2,371 Climbing Chicago Center
Fri 03:48:38 PM 41.7583 -87.0314 99° East 390 449 17,400 2,081 Climbing Chicago Center
Fri 03:49:40 PM 41.7431 -86.8814 98° East 407 468 19,000 1,776 Climbing Chicago Center
Fri 03:50:43 PM 41.7261 -86.7267 98° East 421 484 21,100 2,112 Climbing Chicago Center
Fri 03:51:45 PM 41.7097 -86.5492 97° East 439 505 23,400 2,129 Climbing Chicago Center
Fri 03:52:47 PM 41.7053 -86.3789 92° East 458 527 25,500 1,984 Climbing Chicago Center
Fri 03:53:49 PM 41.7042 -86.2056 90° East 466 536 27,500 1,984 Climbing Chicago Center
Fri 03:54:51 PM 41.6997 -85.9922 92° East 476 548 29,600 1,742 Climbing Chicago Center
Fri 03:55:53 PM 41.6978 -85.8103 91° East 486 559 31,100 1,694 Climbing Chicago Center
Fri 03:56:55 PM 41.6953 -85.6267 91° East 492 566 33,100 1,790 Climbing Chicago Center
Fri 03:57:57 PM 41.6892 -85.4328 92° East 491 565 34,800 1,742 Climbing Chicago Center
Fri 03:58:59 PM 41.6856 -85.2478 91° East 492 566 36,700 1,728 Climbing Chicago Center
Fri 04:00:02 PM 41.6828 -85.0725 91° East 475 547 38,400 1,104 Climbing Chicago Center
Fri 04:01:04 PM 41.6775 -84.9036 92° East 458 527 39,000 290 Climbing Chicago Center
Fri 04:02:06 PM 41.6728 -84.7317 92° East 462 532 39,000  Level Chicago Center
Fri 04:03:08 PM 41.6669 -84.5272 92° East 460 529 39,000  Level Chicago Center
Fri 04:04:10 PM 41.6619 -84.3567 92° East 460 529 39,000  Level Chicago Center
Fri 04:05:12 PM 41.6558 -84.1858 93° East 461 531 39,000  Level Chicago Center
Fri 04:06:14 PM 41.6506 -84.0175 92° East 456 525 39,000  Level Chicago Center
Fri 04:07:20 PM 41.6406 -83.8369 94° East 458 527 39,000  Level Cleveland Center
Fri 04:08:20 PM 41.6347 -83.6728 93° East 458 527 39,000  Level Cleveland Center
Fri 04:09:20 PM 41.6286 -83.5083 93° East 453 521 39,000  Level Cleveland Center
Fri 04:10:20 PM 41.6225 -83.3414 93° East 453 521 39,000  Level Cleveland Center
Fri 04:11:20 PM 41.6161 -83.1578 93° East 443 510 39,000  Level Cleveland Center
Fri 04:12:20 PM 41.6094 -82.9936 93° East 443 510 39,000  Level Cleveland Center
Fri 04:13:21 PM 41.6022 -82.8297 93° East 443 510 39,000  Level Cleveland Center
Fri 04:14:20 PM 41.5950 -82.6628 93° East 448 516 39,000  Level Cleveland Center
Fri 04:15:20 PM 41.5892 -82.5183 93° East 442 509 39,000  Level Cleveland Center
Fri 04:16:20 PM 41.5794 -82.3542 94° East 447 514 39,000  Level Cleveland Center
Fri 04:17:20 PM 41.5736 -82.1875 93° East 447 514 39,000  Level Cleveland Center
Fri 04:18:20 PM 41.5653 -82.0206 94° East 447 514 39,000 -500 Level Cleveland Center
Fri 04:19:20 PM 41.5425 -81.8400 100° East 447 514 38,000 -1,000 Descending Cleveland Center
Fri 04:20:20 PM 41.5192 -81.6703 100° East 447 514 37,000 -500 Descending Cleveland Center
Fri 04:21:20 PM 41.4956 -81.5008 100° East 453 521 37,000  Level Cleveland Center
Fri 04:22:20 PM 41.4697 -81.3397 102° East 453 521 37,000 -350 Level Cleveland Center
Fri 04:23:20 PM 41.4436 -81.1758 102° East 453 521 36,300 -1,000 Descending Cleveland Center
Fri 04:24:20 PM 41.4172 -81.0067 102° East 453 521 35,000 -1,250 Descending Cleveland Center
Fri 04:25:20 PM 41.3947 -80.8600 102° East 453 521 33,800 -1,350 Descending Cleveland Center
Fri 04:26:20 PM 41.3700 -80.6911 101° East 453 521 32,300 -1,450 Descending Cleveland Center
Fri 04:27:20 PM 41.3431 -80.5167 102° East 471 542 30,900 -1,450 Descending Cleveland Center
Fri 04:28:20 PM 41.3156 -80.3317 101° East 471 542 29,400 -950 Descending Cleveland Center
Fri 04:29:20 PM 41.2881 -80.1547 102° East 471 542 29,000 -550 Descending Cleveland Center
Fri 04:30:20 PM 41.2558 -79.9811 104° East 471 542 28,300 -750 Descending Cleveland Center
Fri 04:31:20 PM 41.2256 -79.7964 102° East 482 555 27,500 -850 Descending Cleveland Center
Fri 04:32:20 PM 41.1972 -79.6117 101° East 501 577 26,600 -900 Descending Cleveland Center
Fri 04:33:20 PM 41.1683 -79.4300 102° East 506 582 25,700 -1,200 Descending Cleveland Center
Fri 04:34:20 PM 41.1372 -79.2542 103° East 500 575 24,200 -2,050 Descending Cleveland Center
Fri 04:35:20 PM 41.1081 -79.0867 103° East 480 552 21,600 -2,550 Descending Cleveland Center
Fri 04:36:20 PM 41.0808 -78.9247 103° East 461 531 19,100 -2,300 Descending Cleveland Center
Fri 04:37:20 PM 41.0556 -78.7714 102° East 446 513 17,000 -706 Descending Cleveland Center
Fri 04:39:10 PM 41.0061 -78.5147 104° East 427 491 17,100 35 Climbing New York Center
Fri 04:40:12 PM 40.9822 -78.3692 102° East 418 481 17,100 -49 Level New York Center
Fri 04:41:12 PM 40.9564 -78.2206 103° East 413 475 17,000 -50 Descending New York Center
Fri 04:42:11 PM 40.9428 -78.0706 97° East 408 470 17,000  Level New York Center
Fri 04:43:10 PM 40.9258 -77.9039 98° East 413 475 17,000  Level New York Center
Fri 04:44:11 PM 40.9033 -77.7558 101° East 413 475 17,000  Level New York Center
Fri 04:45:11 PM 40.8808 -77.6053 101° East 413 475 17,000 -102 Level New York Center
Fri 04:46:09 PM 40.8600 -77.4578 101° East 413 475 16,800 -555 Descending New York Center
Fri 04:47:10 PM 40.8400 -77.3297 102° East 408 470 15,900 -934 Descending New York Center
Fri 04:48:11 PM 40.8169 -77.1819 102° East 403 464 14,900 -984 Descending New York Center
Fri 04:49:12 PM 40.7956 -77.0375 101° East 396 456 13,900 -958 Descending New York Center
Fri 04:50:10 PM 40.7725 -76.8819 101° East 396 456 13,000 -300 Descending New York Center
Fri 04:52:12 PM 40.7317 -76.6125 101° East 391 450 13,000  Level New York Center
Fri 04:53:10 PM 40.7072 -76.4736 103° East 397 457 13,000 -50 Level New York Center
Fri 04:54:11 PM 40.6853 -76.3211 101° East 392 451 12,900 -49 Descending New York Center
Fri 04:55:12 PM 40.6628 -76.1797 102° East 392 451 12,900  Level New York Center
Fri 04:56:10 PM 40.6378 -76.0383 103° East 392 451 12,900 -356 Level New York Center
Fri 04:57:10 PM 40.6078 -75.9183 108° East 392 451 12,200 -793 Descending New York Center
Fri 04:58:11 PM 40.5675 -75.7897 112° Southeast 382 440 11,300 -689 Descending New York Center
Fri 04:59:12 PM 40.5231 -75.6528 113° Southeast 377 434 10,800 -706 Descending New York Center
Fri 05:00:10 PM 40.4878 -75.5464 114° Southeast 364 419 9,900 -454 Descending New York Center
Fri 05:01:11 PM 40.4503 -75.4456 116° Southeast 326 375 9,900 -250 Level New York Center
Fri 05:02:10 PM 40.3767 -75.4081 159° South 287 330 9,400 -900 Descending New York Center
Fri 05:03:11 PM 40.2956 -75.3536 153° Southeast 287 330 8,100 -1,180 Descending New York Center
Fri 05:04:12 PM 40.2242 -75.3081 154° Southeast 287 330 7,000 -893 Descending New York Center
Fri 05:05:12 PM 40.1489 -75.2625 155° Southeast 293 337 6,300 -508 Descending New York Center
Fri 05:06:10 PM 40.0878 -75.2258 155° Southeast 283 326 6,000 -194 Descending New York Center
Fri 05:07:16 PM 40.0167 -75.1667 147° Southeast 261 300 5,900 -48 Descending Philadelphia TRACON
Fri 05:08:16 PM 39.9833 -75.1000 123° Southeast 228 262 5,900 -384 Level Philadelphia TRACON
Fri 05:09:21 PM 40.0000 -75.0333 72° East 211 243 5,100 -850 Descending Philadelphia TRACON
Fri 05:10:16 PM 40.0167 -74.9667 72° East 206 237 4,200 -881 Descending Philadelphia TRACON
Fri 05:11:10 PM 40.0000 -74.9167 114° Southeast 181 208 3,500 -600 Descending Philadelphia TRACON
Fri 05:12:16 PM 39.9500 -74.9333 194° South 171 197 3,000 -240 Descending Philadelphia TRACON
Fri 05:13:15 PM 39.9167 -74.9833 229° Southwest 169 194 3,000 -250 Level Philadelphia TRACON
Fri 05:14:16 PM 39.9167 -75.0500 270° West 173 199 2,500 -694 Descending Philadelphia TRACON
Fri 05:15:16 PM 39.9000 -75.1167 252° West 173 199 1,600 -800 Descending Philadelphia TRACON
Fri 05:16:16 PM 39.8833 -75.1667 247° West 147 169 900 -684 Descending Philadelphia TRACON
Fri 05:17:10 PM 39.8833 -75.2000 270° West 136 157 300 -667 Descending Philadelphia TRACON
Fri 05:19:00 PM 39.8667 -75.2333 North  Level FlightAware Approximate
Fri 05:26:00 PM 39.8722 -75.2409 North  Level Estimated

Login

Don't have an account? Register now (free) for customized features, flight alerts, and more!